sensor_id;sensor_type;location;lat;lon;timestamp;temperature;humidity
64111;DHT22;50401;48.188;11.566;2022-07-23T00:01:20;25.45;56.43
64111;DHT22;50401;48.188;11.566;2022-07-23T00:03:49;25.38;56.34
64111;DHT22;50401;48.188;11.566;2022-07-23T00:06:14;25.48;56.16
64111;DHT22;50401;48.188;11.566;2022-07-23T00:08:40;25.40;56.13
64111;DHT22;50401;48.188;11.566;2022-07-23T00:11:06;25.33;56.19
64111;DHT22;50401;48.188;11.566;2022-07-23T00:13:31;25.35;55.93
64111;DHT22;50401;48.188;11.566;2022-07-23T00:15:57;25.40;55.75
64111;DHT22;50401;48.188;11.566;2022-07-23T00:18:22;25.34;55.71
64111;DHT22;50401;48.188;11.566;2022-07-23T00:20:47;25.28;55.52
64111;DHT22;50401;48.188;11.566;2022-07-23T00:23:13;25.28;55.03
64111;DHT22;50401;48.188;11.566;2022-07-23T00:25:39;25.43;54.40
64111;DHT22;50401;48.188;11.566;2022-07-23T00:28:04;25.48;54.16
64111;DHT22;50401;48.188;11.566;2022-07-23T00:30:30;25.58;54.39
64111;DHT22;50401;48.188;11.566;2022-07-23T00:33:01;25.68;53.88
64111;DHT22;50401;48.188;11.566;2022-07-23T00:35:30;25.75;54.25
64111;DHT22;50401;48.188;11.566;2022-07-23T00:37:56;25.82;55.01
64111;DHT22;50401;48.188;11.566;2022-07-23T00:40:22;25.81;54.85
64111;DHT22;50401;48.188;11.566;2022-07-23T00:42:48;25.82;54.51
64111;DHT22;50401;48.188;11.566;2022-07-23T00:45:13;25.82;54.59
64111;DHT22;50401;48.188;11.566;2022-07-23T00:47:39;25.82;54.72
64111;DHT22;50401;48.188;11.566;2022-07-23T00:50:07;25.75;54.47
64111;DHT22;50401;48.188;11.566;2022-07-23T00:52:34;25.75;54.40
64111;DHT22;50401;48.188;11.566;2022-07-23T00:55:00;25.74;54.31
64111;DHT22;50401;48.188;11.566;2022-07-23T00:57:26;25.76;54.26
64111;DHT22;50401;48.188;11.566;2022-07-23T00:59:51;25.74;54.26
64111;DHT22;50401;48.188;11.566;2022-07-23T01:02:16;25.62;54.38
64111;DHT22;50401;48.188;11.566;2022-07-23T01:04:42;25.61;54.45
64111;DHT22;50401;48.188;11.566;2022-07-23T01:07:07;25.50;54.82
64111;DHT22;50401;48.188;11.566;2022-07-23T01:09:33;25.57;54.92
64111;DHT22;50401;48.188;11.566;2022-07-23T01:11:59;25.55;55.13
64111;DHT22;50401;48.188;11.566;2022-07-23T01:14:24;25.38;56.04
64111;DHT22;50401;48.188;11.566;2022-07-23T01:16:50;25.44;56.30
64111;DHT22;50401;48.188;11.566;2022-07-23T01:19:16;25.44;56.85
64111;DHT22;50401;48.188;11.566;2022-07-23T01:21:50;25.40;56.97
64111;DHT22;50401;48.188;11.566;2022-07-23T01:24:16;25.34;56.92
64111;DHT22;50401;48.188;11.566;2022-07-23T01:26:44;25.23;56.38
64111;DHT22;50401;48.188;11.566;2022-07-23T01:29:10;25.10;54.96
64111;DHT22;50401;48.188;11.566;2022-07-23T01:31:35;25.12;53.99
64111;DHT22;50401;48.188;11.566;2022-07-23T01:34:01;24.93;54.91
64111;DHT22;50401;48.188;11.566;2022-07-23T01:36:27;24.61;56.65
64111;DHT22;50401;48.188;11.566;2022-07-23T01:38:53;24.46;58.79
64111;DHT22;50401;48.188;11.566;2022-07-23T01:41:18;24.17;60.03
64111;DHT22;50401;48.188;11.566;2022-07-23T01:43:44;24.01;59.53
64111;DHT22;50401;48.188;11.566;2022-07-23T01:46:10;23.88;61.89
64111;DHT22;50401;48.188;11.566;2022-07-23T01:51:13;23.24;65.97
64111;DHT22;50401;48.188;11.566;2022-07-23T01:53:38;23.05;67.87
64111;DHT22;50401;48.188;11.566;2022-07-23T01:56:04;22.59;69.51
64111;DHT22;50401;48.188;11.566;2022-07-23T01:58:30;22.28;71.50
64111;DHT22;50401;48.188;11.566;2022-07-23T02:00:56;22.11;72.88
64111;DHT22;50401;48.188;11.566;2022-07-23T02:03:21;21.98;73.41
64111;DHT22;50401;48.188;11.566;2022-07-23T02:05:47;21.98;72.12
64111;DHT22;50401;48.188;11.566;2022-07-23T02:08:12;21.83;74.04
64111;DHT22;50401;48.188;11.566;2022-07-23T02:10:37;21.90;72.76
64111;DHT22;50401;48.188;11.566;2022-07-23T02:13:03;21.88;72.60
64111;DHT22;50401;48.188;11.566;2022-07-23T02:15:28;22.04;72.75
64111;DHT22;50401;48.188;11.566;2022-07-23T02:17:54;22.15;73.41
64111;DHT22;50401;48.188;11.566;2022-07-23T02:20:20;22.19;73.17
64111;DHT22;50401;48.188;11.566;2022-07-23T02:22:45;21.95;73.87
64111;DHT22;50401;48.188;11.566;2022-07-23T02:25:11;21.87;74.78
64111;DHT22;50401;48.188;11.566;2022-07-23T02:27:37;21.83;75.08
64111;DHT22;50401;48.188;11.566;2022-07-23T02:30:03;21.97;74.88
64111;DHT22;50401;48.188;11.566;2022-07-23T02:32:29;22.05;75.38
64111;DHT22;50401;48.188;11.566;2022-07-23T02:34:54;21.98;74.54
64111;DHT22;50401;48.188;11.566;2022-07-23T02:37:20;22.08;74.16
64111;DHT22;50401;48.188;11.566;2022-07-23T02:39:45;22.15;72.41
64111;DHT22;50401;48.188;11.566;2022-07-23T02:42:11;22.19;72.63
64111;DHT22;50401;48.188;11.566;2022-07-23T02:44:36;22.25;72.65
64111;DHT22;50401;48.188;11.566;2022-07-23T02:47:02;22.21;72.25
64111;DHT22;50401;48.188;11.566;2022-07-23T02:49:27;22.23;71.85
64111;DHT22;50401;48.188;11.566;2022-07-23T02:51:53;22.28;70.44
64111;DHT22;50401;48.188;11.566;2022-07-23T02:54:19;22.23;70.30
64111;DHT22;50401;48.188;11.566;2022-07-23T02:56:44;22.21;71.61
64111;DHT22;50401;48.188;11.566;2022-07-23T02:59:10;22.15;73.34
64111;DHT22;50401;48.188;11.566;2022-07-23T03:01:35;22.19;73.46
64111;DHT22;50401;48.188;11.566;2022-07-23T03:04:01;22.13;73.54
64111;DHT22;50401;48.188;11.566;2022-07-23T03:06:26;22.08;73.65
64111;DHT22;50401;48.188;11.566;2022-07-23T03:08:52;21.98;73.58
64111;DHT22;50401;48.188;11.566;2022-07-23T03:11:17;21.59;75.35
64111;DHT22;50401;48.188;11.566;2022-07-23T03:13:43;21.21;76.35
64111;DHT22;50401;48.188;11.566;2022-07-23T03:16:08;21.26;76.01
64111;DHT22;50401;48.188;11.566;2022-07-23T03:18:33;21.41;76.30
64111;DHT22;50401;48.188;11.566;2022-07-23T03:20:59;21.53;75.41
64111;DHT22;50401;48.188;11.566;2022-07-23T03:23:25;21.39;75.20
64111;DHT22;50401;48.188;11.566;2022-07-23T03:25:50;21.41;75.58
64111;DHT22;50401;48.188;11.566;2022-07-23T03:28:16;21.28;75.89
64111;DHT22;50401;48.188;11.566;2022-07-23T03:30:43;21.32;76.40
64111;DHT22;50401;48.188;11.566;2022-07-23T03:33:10;21.04;76.36
64111;DHT22;50401;48.188;11.566;2022-07-23T03:35:36;20.95;76.71
64111;DHT22;50401;48.188;11.566;2022-07-23T03:38:01;20.48;77.85
64111;DHT22;50401;48.188;11.566;2022-07-23T03:40:26;20.24;78.39
64111;DHT22;50401;48.188;11.566;2022-07-23T03:42:52;20.32;78.84
64111;DHT22;50401;48.188;11.566;2022-07-23T03:45:17;20.53;76.88
64111;DHT22;50401;48.188;11.566;2022-07-23T03:47:42;20.84;76.34
64111;DHT22;50401;48.188;11.566;2022-07-23T03:50:09;20.97;75.27
64111;DHT22;50401;48.188;11.566;2022-07-23T03:52:35;21.29;75.36
64111;DHT22;50401;48.188;11.566;2022-07-23T03:55:01;21.34;76.04
64111;DHT22;50401;48.188;11.566;2022-07-23T03:57:26;20.87;75.91
64111;DHT22;50401;48.188;11.566;2022-07-23T03:59:52;20.88;76.43
64111;DHT22;50401;48.188;11.566;2022-07-23T04:02:17;21.05;76.99
64111;DHT22;50401;48.188;11.566;2022-07-23T04:04:42;20.88;75.89
64111;DHT22;50401;48.188;11.566;2022-07-23T04:07:08;20.80;75.73
64111;DHT22;50401;48.188;11.566;2022-07-23T04:09:33;20.74;76.19
64111;DHT22;50401;48.188;11.566;2022-07-23T04:11:59;20.91;76.93
64111;DHT22;50401;48.188;11.566;2022-07-23T04:14:25;21.04;76.49
64111;DHT22;50401;48.188;11.566;2022-07-23T04:16:50;20.97;76.41
64111;DHT22;50401;48.188;11.566;2022-07-23T04:19:16;20.94;75.69
64111;DHT22;50401;48.188;11.566;2022-07-23T04:21:41;20.87;75.52
64111;DHT22;50401;48.188;11.566;2022-07-23T04:24:06;20.98;75.86
64111;DHT22;50401;48.188;11.566;2022-07-23T04:26:32;21.18;75.72
64111;DHT22;50401;48.188;11.566;2022-07-23T04:28:57;21.35;75.32
64111;DHT22;50401;48.188;11.566;2022-07-23T04:31:23;21.60;74.56
64111;DHT22;50401;48.188;11.566;2022-07-23T04:33:48;21.74;74.30
64111;DHT22;50401;48.188;11.566;2022-07-23T04:36:13;21.87;73.95
64111;DHT22;50401;48.188;11.566;2022-07-23T04:38:39;21.73;73.73
64111;DHT22;50401;48.188;11.566;2022-07-23T04:41:04;21.22;75.16
64111;DHT22;50401;48.188;11.566;2022-07-23T04:43:30;21.18;75.16
64111;DHT22;50401;48.188;11.566;2022-07-23T04:45:55;21.14;74.79
64111;DHT22;50401;48.188;11.566;2022-07-23T04:48:21;21.01;74.64
64111;DHT22;50401;48.188;11.566;2022-07-23T04:50:46;21.19;74.49
64111;DHT22;50401;48.188;11.566;2022-07-23T04:53:11;21.24;74.73
64111;DHT22;50401;48.188;11.566;2022-07-23T04:55:37;21.46;75.10
64111;DHT22;50401;48.188;11.566;2022-07-23T04:58:02;21.70;74.74
64111;DHT22;50401;48.188;11.566;2022-07-23T05:00:28;21.66;73.09
64111;DHT22;50401;48.188;11.566;2022-07-23T05:02:53;21.34;73.99
64111;DHT22;50401;48.188;11.566;2022-07-23T05:05:18;21.43;72.90
64111;DHT22;50401;48.188;11.566;2022-07-23T05:07:44;21.56;73.17
64111;DHT22;50401;48.188;11.566;2022-07-23T05:10:09;21.57;73.34
64111;DHT22;50401;48.188;11.566;2022-07-23T05:12:34;21.49;72.73
64111;DHT22;50401;48.188;11.566;2022-07-23T05:15:00;21.42;72.42
64111;DHT22;50401;48.188;11.566;2022-07-23T05:17:25;21.49;71.77
64111;DHT22;50401;48.188;11.566;2022-07-23T05:19:51;21.52;71.47
64111;DHT22;50401;48.188;11.566;2022-07-23T05:22:16;21.61;70.33
64111;DHT22;50401;48.188;11.566;2022-07-23T05:24:41;21.46;70.46
64111;DHT22;50401;48.188;11.566;2022-07-23T05:27:08;21.49;69.87
64111;DHT22;50401;48.188;11.566;2022-07-23T05:29:33;21.42;69.53
64111;DHT22;50401;48.188;11.566;2022-07-23T05:31:59;21.31;69.15
64111;DHT22;50401;48.188;11.566;2022-07-23T05:34:24;21.41;69.46
64111;DHT22;50401;48.188;11.566;2022-07-23T05:36:50;21.50;69.51
64111;DHT22;50401;48.188;11.566;2022-07-23T05:39:15;21.52;69.62
64111;DHT22;50401;48.188;11.566;2022-07-23T05:41:40;21.52;68.90
64111;DHT22;50401;48.188;11.566;2022-07-23T05:44:06;21.56;69.09
64111;DHT22;50401;48.188;11.566;2022-07-23T05:46:31;21.66;68.64
64111;DHT22;50401;48.188;11.566;2022-07-23T05:48:57;21.66;68.27
64111;DHT22;50401;48.188;11.566;2022-07-23T05:51:23;21.78;68.08
64111;DHT22;50401;48.188;11.566;2022-07-23T05:53:49;21.98;68.37
64111;DHT22;50401;48.188;11.566;2022-07-23T05:56:15;22.05;67.98
64111;DHT22;50401;48.188;11.566;2022-07-23T05:58:41;22.12;67.65
64111;DHT22;50401;48.188;11.566;2022-07-23T06:01:06;22.28;67.79
64111;DHT22;50401;48.188;11.566;2022-07-23T06:03:32;22.45;67.39
64111;DHT22;50401;48.188;11.566;2022-07-23T06:05:57;22.46;67.16
64111;DHT22;50401;48.188;11.566;2022-07-23T06:08:23;22.50;67.21
64111;DHT22;50401;48.188;11.566;2022-07-23T06:10:48;22.52;66.18
64111;DHT22;50401;48.188;11.566;2022-07-23T06:13:13;22.40;66.16
64111;DHT22;50401;48.188;11.566;2022-07-23T06:15:39;22.26;67.70
64111;DHT22;50401;48.188;11.566;2022-07-23T06:18:04;22.26;67.47
64111;DHT22;50401;48.188;11.566;2022-07-23T06:20:30;22.19;68.69
64111;DHT22;50401;48.188;11.566;2022-07-23T06:22:55;22.28;69.02
64111;DHT22;50401;48.188;11.566;2022-07-23T06:25:21;22.18;68.58
64111;DHT22;50401;48.188;11.566;2022-07-23T06:27:47;22.13;69.46
64111;DHT22;50401;48.188;11.566;2022-07-23T06:30:13;21.93;69.27
64111;DHT22;50401;48.188;11.566;2022-07-23T06:32:41;21.87;68.93
64111;DHT22;50401;48.188;11.566;2022-07-23T06:35:07;21.91;69.32
64111;DHT22;50401;48.188;11.566;2022-07-23T06:37:32;21.67;70.00
64111;DHT22;50401;48.188;11.566;2022-07-23T06:39:57;21.84;70.37
64111;DHT22;50401;48.188;11.566;2022-07-23T06:42:23;21.88;70.40
64111;DHT22;50401;48.188;11.566;2022-07-23T06:44:48;21.90;69.97
64111;DHT22;50401;48.188;11.566;2022-07-23T06:47:14;22.00;69.61
64111;DHT22;50401;48.188;11.566;2022-07-23T06:49:39;22.13;69.81
64111;DHT22;50401;48.188;11.566;2022-07-23T06:52:06;22.25;69.15
64111;DHT22;50401;48.188;11.566;2022-07-23T06:54:32;22.32;68.59
64111;DHT22;50401;48.188;11.566;2022-07-23T06:56:57;22.47;67.59
64111;DHT22;50401;48.188;11.566;2022-07-23T06:59:23;22.56;68.01
64111;DHT22;50401;48.188;11.566;2022-07-23T07:01:48;22.70;67.24
64111;DHT22;50401;48.188;11.566;2022-07-23T07:04:13;22.81;66.75
64111;DHT22;50401;48.188;11.566;2022-07-23T07:06:39;22.92;66.69
64111;DHT22;50401;48.188;11.566;2022-07-23T07:09:04;23.02;66.21
64111;DHT22;50401;48.188;11.566;2022-07-23T07:11:30;23.15;66.18
64111;DHT22;50401;48.188;11.566;2022-07-23T07:13:55;23.23;66.93
64111;DHT22;50401;48.188;11.566;2022-07-23T07:16:20;23.26;67.20
64111;DHT22;50401;48.188;11.566;2022-07-23T07:18:46;23.23;67.53
64111;DHT22;50401;48.188;11.566;2022-07-23T07:21:11;23.20;67.65
64111;DHT22;50401;48.188;11.566;2022-07-23T07:23:37;23.05;69.13
64111;DHT22;50401;48.188;11.566;2022-07-23T07:26:02;23.05;69.32
64111;DHT22;50401;48.188;11.566;2022-07-23T07:28:28;23.11;69.38
64111;DHT22;50401;48.188;11.566;2022-07-23T07:30:53;23.12;69.75
64111;DHT22;50401;48.188;11.566;2022-07-23T07:33:18;23.15;70.11
64111;DHT22;50401;48.188;11.566;2022-07-23T07:35:44;23.18;70.68
64111;DHT22;50401;48.188;11.566;2022-07-23T07:38:09;23.19;70.90
64111;DHT22;50401;48.188;11.566;2022-07-23T07:40:35;23.18;70.61
64111;DHT22;50401;48.188;11.566;2022-07-23T07:43:00;23.15;69.50
64111;DHT22;50401;48.188;11.566;2022-07-23T07:45:28;23.09;69.17
64111;DHT22;50401;48.188;11.566;2022-07-23T07:47:53;23.04;69.29
64111;DHT22;50401;48.188;11.566;2022-07-23T07:50:20;23.01;69.50
64111;DHT22;50401;48.188;11.566;2022-07-23T07:52:45;22.84;69.46
64111;DHT22;50401;48.188;11.566;2022-07-23T07:55:11;22.72;70.77
64111;DHT22;50401;48.188;11.566;2022-07-23T07:57:37;22.74;70.88
64111;DHT22;50401;48.188;11.566;2022-07-23T08:00:07;22.70;70.87
64111;DHT22;50401;48.188;11.566;2022-07-23T08:05:14;22.57;70.83
64111;DHT22;50401;48.188;11.566;2022-07-23T08:07:43;22.67;70.56
64111;DHT22;50401;48.188;11.566;2022-07-23T08:10:09;22.83;70.00
64111;DHT22;50401;48.188;11.566;2022-07-23T08:12:52;22.86;70.08
64111;DHT22;50401;48.188;11.566;2022-07-23T08:15:20;22.87;70.90
64111;DHT22;50401;48.188;11.566;2022-07-23T08:17:46;22.83;71.63
64111;DHT22;50401;48.188;11.566;2022-07-23T08:20:13;22.88;71.62
64111;DHT22;50401;48.188;11.566;2022-07-23T08:25:12;22.98;71.28
64111;DHT22;50401;48.188;11.566;2022-07-23T08:27:37;23.04;71.41
64111;DHT22;50401;48.188;11.566;2022-07-23T08:30:03;23.08;71.29
64111;DHT22;50401;48.188;11.566;2022-07-23T08:32:29;22.97;71.09
64111;DHT22;50401;48.188;11.566;2022-07-23T08:34:54;23.01;71.54
64111;DHT22;50401;48.188;11.566;2022-07-23T08:37:20;23.05;71.15
64111;DHT22;50401;48.188;11.566;2022-07-23T08:39:45;23.11;70.13
64111;DHT22;50401;48.188;11.566;2022-07-23T08:42:13;23.06;69.58
64111;DHT22;50401;48.188;11.566;2022-07-23T08:44:44;23.18;69.61
64111;DHT22;50401;48.188;11.566;2022-07-23T08:47:11;23.29;68.27
64111;DHT22;50401;48.188;11.566;2022-07-23T08:49:37;23.19;68.06
64111;DHT22;50401;48.188;11.566;2022-07-23T08:52:03;23.45;67.73
64111;DHT22;50401;48.188;11.566;2022-07-23T08:54:29;23.71;67.12
64111;DHT22;50401;48.188;11.566;2022-07-23T08:56:55;24.01;67.12
64111;DHT22;50401;48.188;11.566;2022-07-23T08:59:20;24.36;64.88
64111;DHT22;50401;48.188;11.566;2022-07-23T09:01:46;24.54;64.36
64111;DHT22;50401;48.188;11.566;2022-07-23T09:04:11;24.58;65.20
64111;DHT22;50401;48.188;11.566;2022-07-23T09:06:39;24.50;66.30
64111;DHT22;50401;48.188;11.566;2022-07-23T09:09:19;24.43;66.38
64111;DHT22;50401;48.188;11.566;2022-07-23T09:11:46;24.20;67.69
64111;DHT22;50401;48.188;11.566;2022-07-23T09:14:12;24.29;67.63
64111;DHT22;50401;48.188;11.566;2022-07-23T09:16:37;24.24;68.22
64111;DHT22;50401;48.188;11.566;2022-07-23T09:19:05;24.27;68.15
64111;DHT22;50401;48.188;11.566;2022-07-23T09:21:32;24.26;68.09
64111;DHT22;50401;48.188;11.566;2022-07-23T09:24:06;24.32;67.55
64111;DHT22;50401;48.188;11.566;2022-07-23T09:26:48;24.67;66.69
64111;DHT22;50401;48.188;11.566;2022-07-23T09:29:25;25.05;64.78
64111;DHT22;50401;48.188;11.566;2022-07-23T09:34:23;25.81;61.25
64111;DHT22;50401;48.188;11.566;2022-07-23T09:36:51;26.14;60.27
64111;DHT22;50401;48.188;11.566;2022-07-23T09:39:25;27.27;57.87
64111;DHT22;50401;48.188;11.566;2022-07-23T09:41:51;27.97;56.12
64111;DHT22;50401;48.188;11.566;2022-07-23T09:44:20;28.29;55.24
64111;DHT22;50401;48.188;11.566;2022-07-23T09:46:50;28.67;54.66
64111;DHT22;50401;48.188;11.566;2022-07-23T09:49:23;28.83;53.40
64111;DHT22;50401;48.188;11.566;2022-07-23T09:51:58;29.24;52.59
64111;DHT22;50401;48.188;11.566;2022-07-23T09:56:53;29.06;52.78
64111;DHT22;50401;48.188;11.566;2022-07-23T09:59:23;29.22;52.65
64111;DHT22;50401;48.188;11.566;2022-07-23T10:01:49;29.28;52.11
64111;DHT22;50401;48.188;11.566;2022-07-23T10:04:15;29.22;52.53
64111;DHT22;50401;48.188;11.566;2022-07-23T10:06:42;29.35;52.21
64111;DHT22;50401;48.188;11.566;2022-07-23T10:09:12;29.19;51.70
64111;DHT22;50401;48.188;11.566;2022-07-23T10:11:41;28.70;51.73
64111;DHT22;50401;48.188;11.566;2022-07-23T10:14:07;28.29;49.69
64111;DHT22;50401;48.188;11.566;2022-07-23T10:16:33;28.28;51.17
64111;DHT22;50401;48.188;11.566;2022-07-23T10:18:59;28.56;50.64
64111;DHT22;50401;48.188;11.566;2022-07-23T10:21:40;28.97;48.82
64111;DHT22;50401;48.188;11.566;2022-07-23T10:31:58;28.93;49.85
64111;DHT22;50401;48.188;11.566;2022-07-23T10:34:53;28.86;49.68
64111;DHT22;50401;48.188;11.566;2022-07-23T10:37:37;28.63;49.38
64111;DHT22;50401;48.188;11.566;2022-07-23T10:40:17;28.80;47.97
64111;DHT22;50401;48.188;11.566;2022-07-23T10:42:44;28.86;48.16
64111;DHT22;50401;48.188;11.566;2022-07-23T10:47:52;28.60;48.76
64111;DHT22;50401;48.188;11.566;2022-07-23T10:57:56;28.41;49.08
64111;DHT22;50401;48.188;11.566;2022-07-23T11:00:23;28.40;48.48
64111;DHT22;50401;48.188;11.566;2022-07-23T11:02:51;28.48;48.08
64111;DHT22;50401;48.188;11.566;2022-07-23T11:05:19;28.58;47.94
64111;DHT22;50401;48.188;11.566;2022-07-23T11:31:59;28.15;48.33
64111;DHT22;50401;48.188;11.566;2022-07-23T11:34:31;28.04;48.33
64111;DHT22;50401;48.188;11.566;2022-07-23T11:36:58;27.90;48.76
64111;DHT22;50401;48.188;11.566;2022-07-23T11:39:25;27.83;48.88
64111;DHT22;50401;48.188;11.566;2022-07-23T11:41:52;27.59;49.87
64111;DHT22;50401;48.188;11.566;2022-07-23T11:44:28;27.58;50.25
64111;DHT22;50401;48.188;11.566;2022-07-23T11:46:58;27.61;50.37
64111;DHT22;50401;48.188;11.566;2022-07-23T11:49:25;27.58;50.59
64111;DHT22;50401;48.188;11.566;2022-07-23T11:54:32;27.59;50.79
64111;DHT22;50401;48.188;11.566;2022-07-23T11:56:59;27.61;51.02
64111;DHT22;50401;48.188;11.566;2022-07-23T11:59:26;27.58;51.26
64111;DHT22;50401;48.188;11.566;2022-07-23T12:01:57;27.62;51.33
64111;DHT22;50401;48.188;11.566;2022-07-23T12:04:23;27.58;51.37
64111;DHT22;50401;48.188;11.566;2022-07-23T12:06:48;27.48;51.85
64111;DHT22;50401;48.188;11.566;2022-07-23T12:09:14;27.34;52.48
64111;DHT22;50401;48.188;11.566;2022-07-23T12:11:39;27.26;52.77
64111;DHT22;50401;48.188;11.566;2022-07-23T12:14:04;27.20;53.30
64111;DHT22;50401;48.188;11.566;2022-07-23T12:16:30;27.17;53.58
64111;DHT22;50401;48.188;11.566;2022-07-23T12:18:56;26.95;54.14
64111;DHT22;50401;48.188;11.566;2022-07-23T12:21:22;27.06;53.25
64111;DHT22;50401;48.188;11.566;2022-07-23T12:23:48;27.10;53.36
64111;DHT22;50401;48.188;11.566;2022-07-23T12:26:14;27.08;53.41
64111;DHT22;50401;48.188;11.566;2022-07-23T12:28:51;27.07;53.39
64111;DHT22;50401;48.188;11.566;2022-07-23T12:31:25;27.06;53.42
64111;DHT22;50401;48.188;11.566;2022-07-23T12:33:51;26.97;53.19
64111;DHT22;50401;48.188;11.566;2022-07-23T12:36:16;26.87;52.97
64111;DHT22;50401;48.188;11.566;2022-07-23T12:38:45;26.87;52.86
64111;DHT22;50401;48.188;11.566;2022-07-23T12:41:12;26.86;53.14
64111;DHT22;50401;48.188;11.566;2022-07-23T12:43:42;26.87;52.91
64111;DHT22;50401;48.188;11.566;2022-07-23T12:46:11;26.87;53.23
64111;DHT22;50401;48.188;11.566;2022-07-23T12:55:27;26.82;53.66
64111;DHT22;50401;48.188;11.566;2022-07-23T12:58:05;26.79;53.64
64111;DHT22;50401;48.188;11.566;2022-07-23T13:00:32;26.79;53.55
64111;DHT22;50401;48.188;11.566;2022-07-23T13:02:57;26.89;53.28
64111;DHT22;50401;48.188;11.566;2022-07-23T13:05:23;26.93;53.65
64111;DHT22;50401;48.188;11.566;2022-07-23T13:07:48;26.85;53.92
64111;DHT22;50401;48.188;11.566;2022-07-23T13:10:14;26.93;53.53
64111;DHT22;50401;48.188;11.566;2022-07-23T13:12:39;26.96;53.27
64111;DHT22;50401;48.188;11.566;2022-07-23T13:15:05;26.99;53.31
64111;DHT22;50401;48.188;11.566;2022-07-23T13:17:31;26.85;53.74
64111;DHT22;50401;48.188;11.566;2022-07-23T13:19:56;26.95;53.82
64111;DHT22;50401;48.188;11.566;2022-07-23T13:22:22;26.89;53.85
64111;DHT22;50401;48.188;11.566;2022-07-23T13:24:47;26.87;53.95
64111;DHT22;50401;48.188;11.566;2022-07-23T13:27:12;26.87;54.05
64111;DHT22;50401;48.188;11.566;2022-07-23T13:29:38;26.85;54.55
64111;DHT22;50401;48.188;11.566;2022-07-23T13:32:03;26.79;54.60
64111;DHT22;50401;48.188;11.566;2022-07-23T13:34:29;26.68;54.80
64111;DHT22;50401;48.188;11.566;2022-07-23T13:36:55;26.71;55.09
64111;DHT22;50401;48.188;11.566;2022-07-23T13:39:20;26.76;55.17
64111;DHT22;50401;48.188;11.566;2022-07-23T13:41:46;26.75;55.24
64111;DHT22;50401;48.188;11.566;2022-07-23T13:44:11;26.78;55.11
64111;DHT22;50401;48.188;11.566;2022-07-23T13:46:36;26.82;55.00
64111;DHT22;50401;48.188;11.566;2022-07-23T13:49:02;26.87;55.23
64111;DHT22;50401;48.188;11.566;2022-07-23T13:51:28;26.97;55.08
64111;DHT22;50401;48.188;11.566;2022-07-23T13:53:53;27.07;54.99
64111;DHT22;50401;48.188;11.566;2022-07-23T13:56:19;27.11;54.78
64111;DHT22;50401;48.188;11.566;2022-07-23T13:58:45;27.07;54.94
64111;DHT22;50401;48.188;11.566;2022-07-23T14:01:10;27.00;55.32
64111;DHT22;50401;48.188;11.566;2022-07-23T14:03:36;26.90;55.39
64111;DHT22;50401;48.188;11.566;2022-07-23T14:06:01;26.85;55.66
64111;DHT22;50401;48.188;11.566;2022-07-23T14:08:27;26.72;55.78
64111;DHT22;50401;48.188;11.566;2022-07-23T14:10:52;26.69;55.74
64111;DHT22;50401;48.188;11.566;2022-07-23T14:13:17;26.56;56.00
64111;DHT22;50401;48.188;11.566;2022-07-23T14:15:43;26.52;56.47
64111;DHT22;50401;48.188;11.566;2022-07-23T14:18:08;26.54;56.43
64111;DHT22;50401;48.188;11.566;2022-07-23T14:20:34;26.52;56.34
64111;DHT22;50401;48.188;11.566;2022-07-23T14:22:59;26.43;56.72
64111;DHT22;50401;48.188;11.566;2022-07-23T14:25:27;26.41;56.75
64111;DHT22;50401;48.188;11.566;2022-07-23T14:27:53;26.37;56.61
64111;DHT22;50401;48.188;11.566;2022-07-23T14:30:18;26.30;56.60
64111;DHT22;50401;48.188;11.566;2022-07-23T14:32:44;26.31;56.54
64111;DHT22;50401;48.188;11.566;2022-07-23T14:35:09;26.40;56.62
64111;DHT22;50401;48.188;11.566;2022-07-23T14:37:35;26.55;56.19
64111;DHT22;50401;48.188;11.566;2022-07-23T14:40:00;26.71;55.71
64111;DHT22;50401;48.188;11.566;2022-07-23T14:42:26;26.82;55.41
64111;DHT22;50401;48.188;11.566;2022-07-23T14:44:51;26.92;55.08
64111;DHT22;50401;48.188;11.566;2022-07-23T14:47:16;26.95;54.92
64111;DHT22;50401;48.188;11.566;2022-07-23T14:49:42;26.86;55.07
64111;DHT22;50401;48.188;11.566;2022-07-23T14:52:07;26.97;54.99
64111;DHT22;50401;48.188;11.566;2022-07-23T14:54:33;26.96;55.02
64111;DHT22;50401;48.188;11.566;2022-07-23T14:56:59;26.92;54.86
64111;DHT22;50401;48.188;11.566;2022-07-23T14:59:26;26.97;54.84
64111;DHT22;50401;48.188;11.566;2022-07-23T15:01:52;27.04;54.85
64111;DHT22;50401;48.188;11.566;2022-07-23T15:04:18;26.95;54.75
64111;DHT22;50401;48.188;11.566;2022-07-23T15:06:43;26.99;54.97
64111;DHT22;50401;48.188;11.566;2022-07-23T15:09:10;27.07;54.72
64111;DHT22;50401;48.188;11.566;2022-07-23T15:11:35;27.13;54.71
64111;DHT22;50401;48.188;11.566;2022-07-23T15:14:03;27.08;54.72
64111;DHT22;50401;48.188;11.566;2022-07-23T15:16:29;27.18;54.65
64111;DHT22;50401;48.188;11.566;2022-07-23T15:18:55;27.27;54.38
64111;DHT22;50401;48.188;11.566;2022-07-23T15:21:21;27.31;53.93
64111;DHT22;50401;48.188;11.566;2022-07-23T15:23:46;27.33;54.26
64111;DHT22;50401;48.188;11.566;2022-07-23T15:26:12;27.26;54.09
64111;DHT22;50401;48.188;11.566;2022-07-23T15:28:40;27.20;54.46
64111;DHT22;50401;48.188;11.566;2022-07-23T15:31:06;27.21;54.57
64111;DHT22;50401;48.188;11.566;2022-07-23T15:33:32;27.17;54.58
64111;DHT22;50401;48.188;11.566;2022-07-23T15:35:57;27.26;54.60
64111;DHT22;50401;48.188;11.566;2022-07-23T15:38:24;27.30;54.42
64111;DHT22;50401;48.188;11.566;2022-07-23T15:40:50;27.35;54.34
64111;DHT22;50401;48.188;11.566;2022-07-23T15:43:15;27.27;54.48
64111;DHT22;50401;48.188;11.566;2022-07-23T15:45:41;27.30;54.25
64111;DHT22;50401;48.188;11.566;2022-07-23T15:48:07;27.27;54.51
64111;DHT22;50401;48.188;11.566;2022-07-23T15:50:32;27.13;54.91
64111;DHT22;50401;48.188;11.566;2022-07-23T15:52:58;27.08;54.95
64111;DHT22;50401;48.188;11.566;2022-07-23T15:55:24;27.07;55.35
64111;DHT22;50401;48.188;11.566;2022-07-23T15:57:50;27.10;55.39
64111;DHT22;50401;48.188;11.566;2022-07-23T16:00:15;27.10;55.51
64111;DHT22;50401;48.188;11.566;2022-07-23T16:02:41;27.13;55.55
64111;DHT22;50401;48.188;11.566;2022-07-23T16:05:06;27.24;55.51
64111;DHT22;50401;48.188;11.566;2022-07-23T16:07:32;27.23;55.79
64111;DHT22;50401;48.188;11.566;2022-07-23T16:09:59;27.23;55.40
64111;DHT22;50401;48.188;11.566;2022-07-23T16:12:24;27.17;55.56
64111;DHT22;50401;48.188;11.566;2022-07-23T16:14:50;27.08;55.92